Time;durP1;ratioP1;P1;durP2;ratioP2;P2;SDS_P1;SDS_P2;PMS_P1;PMS_P2;Temp;Humidity;BMP_temperature;BMP_pressure;BME280_temperature;BME280_humidity;BME280_pressure;Samples;Min_cycle;Max_cycle;Signal;HPM_P1;HPM_P2
2022/06/27 00:00:53;;;;;;;10.05;9.25;;;17.50;99.90;;;;;;5092594;28;20051;-70
2022/06/27 00:03:18;;;;;;;11.10;10.10;;;17.50;99.90;;;;;;5104354;28;20456;-70
2022/06/27 00:05:44;;;;;;;11.25;10.27;;;17.60;99.90;;;;;;5098195;28;20080;-70
2022/06/27 00:08:09;;;;;;;11.25;10.25;;;17.60;99.90;;;;;;5106000;28;20031;-70
2022/06/27 00:10:35;;;;;;;11.52;10.32;;;17.60;99.90;;;;;;5099480;27;20047;-70
2022/06/27 00:13:01;;;;;;;11.00;10.00;;;17.60;99.90;;;;;;5079770;28;20043;-70
2022/06/27 00:15:26;;;;;;;11.68;10.68;;;17.60;99.90;;;;;;5106968;28;20035;-70
2022/06/27 00:17:52;;;;;;;12.88;11.70;;;17.60;99.90;;;;;;5099687;28;20046;-70
2022/06/27 00:20:18;;;;;;;11.98;10.88;;;17.50;99.90;;;;;;5105824;28;20070;-70
2022/06/27 00:22:43;;;;;;;12.68;11.35;;;17.50;99.90;;;;;;5109173;28;20132;-70
2022/06/27 00:25:10;;;;;;;12.50;11.40;;;17.40;99.90;;;;;;5086349;28;20039;-70
2022/06/27 00:27:36;;;;;;;13.15;11.93;;;17.40;99.90;;;;;;5083771;28;20073;-70
2022/06/27 00:30:02;;;;;;;11.95;10.85;;;17.40;99.90;;;;;;5083001;28;20040;-70
2022/06/27 00:32:29;;;;;;;11.02;10.00;;;17.40;99.90;;;;;;5108808;28;20043;-70
2022/06/27 00:34:54;;;;;;;12.70;11.40;;;17.40;99.90;;;;;;5108838;28;20498;-71
2022/06/27 00:37:20;;;;;;;11.38;10.05;;;17.50;99.90;;;;;;5109696;28;20043;-71
2022/06/27 00:39:46;;;;;;;11.57;10.57;;;17.50;99.90;;;;;;5109691;28;20134;-71
2022/06/27 00:42:11;;;;;;;12.32;11.23;;;17.50;99.90;;;;;;5107851;28;20050;-71
2022/06/27 00:44:40;;;;;;;13.07;11.30;;;17.50;99.90;;;;;;5107734;28;20122;-71
2022/06/27 00:47:07;;;;;;;13.70;12.60;;;17.40;99.90;;;;;;5099209;28;20075;-70
2022/06/27 00:49:34;;;;;;;12.55;11.52;;;17.40;99.90;;;;;;5084747;28;20032;-70
2022/06/27 00:52:03;;;;;;;12.85;11.68;;;17.40;99.90;;;;;;5103010;28;20457;-70
2022/06/27 00:54:30;;;;;;;13.50;12.20;;;17.40;99.90;;;;;;5079575;28;20052;-71
2022/06/27 00:56:56;;;;;;;14.10;12.90;;;17.40;99.90;;;;;;5070993;28;20036;-70
2022/06/27 00:59:21;;;;;;;14.57;12.32;;;17.40;99.90;;;;;;5071201;28;20354;-70
2022/06/27 01:01:47;;;;;;;13.60;12.40;;;17.40;99.90;;;;;;5087286;28;20063;-70
2022/06/27 01:04:13;;;;;;;14.48;13.23;;;17.40;99.90;;;;;;5070846;28;20585;-70
2022/06/27 01:06:39;;;;;;;14.25;13.10;;;17.50;99.90;;;;;;5081521;28;20040;-70
2022/06/27 01:09:05;;;;;;;15.00;13.65;;;17.50;99.90;;;;;;5083267;28;20063;-70
2022/06/27 01:11:31;;;;;;;14.45;13.25;;;17.50;99.90;;;;;;5085963;28;20054;-70
2022/06/27 01:13:56;;;;;;;14.73;13.43;;;17.50;99.90;;;;;;5079926;28;20708;-70
2022/06/27 01:16:23;;;;;;;15.57;14.13;;;17.50;99.90;;;;;;5088058;28;20191;-70
2022/06/27 01:18:49;;;;;;;16.10;14.63;;;17.50;99.90;;;;;;5085396;28;20131;-70
2022/06/27 01:21:21;;;;;;;16.23;14.82;;;17.40;99.90;;;;;;5086537;28;20063;-71
2022/06/27 01:23:47;;;;;;;;;;;17.30;99.90;;;;;;5059539;28;20044;-70
2022/06/27 01:26:13;;;;;;;15.60;14.20;;;17.20;99.90;;;;;;5077457;28;19924;-70
2022/06/27 01:28:39;;;;;;;15.70;14.40;;;17.20;99.90;;;;;;5085292;28;20174;-70
2022/06/27 01:31:04;;;;;;;15.98;14.45;;;17.20;99.90;;;;;;5064451;28;20115;-70
2022/06/27 01:33:30;;;;;;;16.48;14.88;;;17.30;99.90;;;;;;5087012;28;20040;-70
2022/06/27 01:36:41;;;;;;;17.40;15.68;;;17.30;99.90;;;;;;5087742;28;20373;-70
2022/06/27 01:38:42;;;;;;;16.17;14.55;;;17.30;99.90;;;;;;5094052;28;20126;-70
2022/06/27 01:41:07;;;;;;;17.40;15.90;;;17.40;99.90;;;;;;5082732;28;20072;-70
2022/06/27 01:43:34;;;;;;;16.42;15.02;;;17.40;99.90;;;;;;5082707;28;20187;-70
2022/06/27 01:46:00;;;;;;;16.58;15.00;;;17.40;99.90;;;;;;5091692;28;20048;-70
2022/06/27 01:48:28;;;;;;;16.40;14.88;;;17.40;99.90;;;;;;5092194;28;20044;-70
2022/06/27 01:50:57;;;;;;;17.00;15.40;;;17.40;99.90;;;;;;5090505;28;20048;-70
2022/06/27 01:53:25;;;;;;;16.77;15.27;;;17.40;99.90;;;;;;5098310;27;20035;-70
2022/06/27 01:55:51;;;;;;;16.25;14.75;;;17.40;99.90;;;;;;5108883;28;20390;-70
2022/06/27 01:58:17;;;;;;;16.70;15.00;;;17.40;99.90;;;;;;5104681;27;20077;-70
2022/06/27 02:00:43;;;;;;;15.82;14.50;;;17.40;99.90;;;;;;5116017;27;20042;-70
2022/06/27 02:03:08;;;;;;;17.42;15.77;;;17.40;99.90;;;;;;5084514;28;20054;-70
2022/06/27 02:05:34;;;;;;;17.90;16.30;;;17.40;99.90;;;;;;5111403;27;20066;-70
2022/06/27 02:08:02;;;;;;;16.88;15.27;;;17.40;99.90;;;;;;5114890;27;20429;-70
2022/06/27 02:10:28;;;;;;;17.23;15.77;;;17.40;99.90;;;;;;5111606;27;20129;-70
2022/06/27 02:12:53;;;;;;;18.42;16.83;;;17.40;99.90;;;;;;5095876;28;20032;-70
2022/06/27 02:15:19;;;;;;;17.40;15.77;;;17.40;99.90;;;;;;5111714;27;20533;-71
2022/06/27 02:17:45;;;;;;;18.33;16.70;;;17.40;99.90;;;;;;5097112;27;20631;-70
2022/06/27 02:20:10;;;;;;;18.15;16.50;;;17.40;99.90;;;;;;5109597;27;20030;-70
2022/06/27 02:22:36;;;;;;;17.42;15.82;;;17.30;99.90;;;;;;5113620;27;20108;-70
2022/06/27 02:25:02;;;;;;;16.92;15.38;;;17.30;99.90;;;;;;5114981;27;20070;-70
2022/06/27 02:27:30;;;;;;;18.35;16.58;;;17.30;99.90;;;;;;5110509;27;20425;-70
2022/06/27 02:29:55;;;;;;;17.02;15.32;;;17.30;99.90;;;;;;5097662;28;20068;-70
2022/06/27 02:32:21;;;;;;;16.38;14.88;;;17.30;99.90;;;;;;5106719;27;20032;-70
2022/06/27 02:34:50;;;;;;;18.80;16.95;;;17.30;99.90;;;;;;5110564;28;20074;-71
2022/06/27 02:37:17;;;;;;;19.58;17.30;;;17.30;99.90;;;;;;5110083;27;20043;-70
2022/06/27 02:39:45;;;;;;;19.23;17.45;;;17.20;99.90;;;;;;5103129;27;20536;-70
2022/06/27 02:42:12;;;;;;;20.60;18.60;;;17.10;99.90;;;;;;5113491;27;20035;-70
2022/06/27 02:44:42;;;;;;;20.98;18.92;;;17.00;99.90;;;;;;5109285;27;20068;-70
2022/06/27 02:47:08;;;;;;;19.50;17.70;;;17.00;99.90;;;;;;5096628;28;20115;-70
2022/06/27 02:49:34;;;;;;;20.63;18.63;;;17.00;99.90;;;;;;5131028;27;20142;-70
2022/06/27 02:52:09;;;;;;;22.33;20.05;;;16.90;99.90;;;;;;5112208;27;20114;-70
2022/06/27 02:54:41;;;;;;;21.48;19.42;;;16.90;99.90;;;;;;5112825;27;20051;-70
2022/06/27 02:57:15;;;;;;;19.95;17.92;;;16.90;99.90;;;;;;5113477;27;20054;-70
2022/06/27 02:59:43;;;;;;;22.40;20.30;;;16.90;99.90;;;;;;5113644;27;20039;-70
2022/06/27 03:02:10;;;;;;;20.80;18.80;;;16.80;99.90;;;;;;5106582;27;20085;-70
2022/06/27 03:04:37;;;;;;;23.08;20.85;;;16.80;99.90;;;;;;5094979;27;20054;-70
2022/06/27 03:07:03;;;;;;;21.65;19.55;;;16.80;99.90;;;;;;5089367;28;20051;-70
2022/06/27 03:09:29;;;;;;;22.77;20.58;;;16.80;99.90;;;;;;5106360;27;20027;-71
2022/06/27 03:11:54;;;;;;;22.88;20.58;;;16.80;99.90;;;;;;5092762;28;20031;-71
2022/06/27 03:14:20;;;;;;;23.98;21.80;;;16.80;99.90;;;;;;5109856;27;20059;-70
2022/06/27 03:16:45;;;;;;;25.00;22.67;;;16.80;99.90;;;;;;5113243;27;20027;-70
2022/06/27 03:19:12;;;;;;;23.10;20.90;;;16.90;99.90;;;;;;5112452;27;20066;-70
2022/06/27 03:21:37;;;;;;;24.15;21.75;;;16.80;99.90;;;;;;5114504;27;20134;-70
2022/06/27 03:24:04;;;;;;;24.77;22.33;;;16.90;99.90;;;;;;5082927;28;20626;-70
2022/06/27 03:26:30;;;;;;;23.75;21.55;;;16.80;99.90;;;;;;5110897;27;20035;-72
2022/06/27 03:28:55;;;;;;;22.75;20.38;;;16.80;99.90;;;;;;5096558;27;20130;-71
2022/06/27 03:31:21;;;;;;;23.05;20.85;;;16.80;99.90;;;;;;5111920;27;20383;-71
2022/06/27 03:33:46;;;;;;;21.58;19.58;;;16.70;99.90;;;;;;5097512;27;20080;-71
2022/06/27 03:36:12;;;;;;;22.77;20.75;;;16.70;99.90;;;;;;5111366;27;20486;-71
2022/06/27 03:38:38;;;;;;;19.45;17.75;;;16.70;99.90;;;;;;5097913;27;20136;-71
2022/06/27 03:41:04;;;;;;;20.88;18.90;;;16.70;99.90;;;;;;5097002;27;20422;-71
2022/06/27 03:43:30;;;;;;;19.02;17.40;;;16.80;99.90;;;;;;5092919;27;20039;-71
2022/06/27 03:45:56;;;;;;;18.92;17.25;;;16.80;99.90;;;;;;5113519;27;20046;-71
2022/06/27 03:51:07;;;;;;;18.50;16.77;;;16.70;99.90;;;;;;5094762;28;20055;-71
2022/06/27 03:53:32;;;;;;;19.10;17.35;;;16.70;99.90;;;;;;5110998;27;20070;-71
2022/06/27 03:55:58;;;;;;;18.73;16.83;;;16.70;99.90;;;;;;5114935;27;20062;-71
2022/06/27 03:58:23;;;;;;;17.80;16.20;;;16.70;99.90;;;;;;5094242;28;20027;-71
2022/06/27 04:00:49;;;;;;;16.85;15.35;;;16.70;99.90;;;;;;5081436;27;20047;-72
2022/06/27 04:03:14;;;;;;;17.83;16.20;;;16.70;99.90;;;;;;5112432;27;20043;-71
2022/06/27 04:05:40;;;;;;;17.70;16.00;;;16.70;99.90;;;;;;5095612;28;20054;-71
2022/06/27 04:08:06;;;;;;;17.05;15.55;;;16.70;99.90;;;;;;5112743;27;20046;-71
2022/06/27 04:10:31;;;;;;;15.25;13.65;;;16.60;99.90;;;;;;5110594;27;20496;-72
2022/06/27 04:12:57;;;;;;;16.27;14.73;;;16.70;99.90;;;;;;5094201;27;20041;-72
2022/06/27 04:15:22;;;;;;;13.77;12.43;;;16.70;99.90;;;;;;5088068;27;20054;-71
2022/06/27 04:17:48;;;;;;;13.20;11.95;;;16.60;99.90;;;;;;5084054;27;20047;-71
2022/06/27 04:20:14;;;;;;;9.98;9.07;;;16.60;99.90;;;;;;5107075;27;20035;-71
2022/06/27 04:22:39;;;;;;;10.25;9.38;;;16.60;99.90;;;;;;5113423;27;20412;-71
2022/06/27 04:25:05;;;;;;;9.00;8.10;;;16.60;99.90;;;;;;5110261;27;20043;-71
2022/06/27 04:27:31;;;;;;;9.30;8.60;;;16.50;99.90;;;;;;5111112;27;20066;-71
2022/06/27 04:29:56;;;;;;;9.32;8.43;;;16.40;99.90;;;;;;5111678;27;20067;-71
2022/06/27 04:32:24;;;;;;;9.32;8.20;;;16.40;99.90;;;;;;5102766;27;20031;-71
2022/06/27 04:34:50;;;;;;;7.55;6.90;;;16.40;99.90;;;;;;5095838;27;20084;-71
2022/06/27 04:37:16;;;;;;;6.80;6.30;;;16.40;99.90;;;;;;5130020;27;20440;-71
2022/06/27 04:39:42;;;;;;;6.47;5.53;;;16.20;99.90;;;;;;5109865;27;20042;-70
2022/06/27 04:42:08;;;;;;;6.47;5.53;;;16.20;99.90;;;;;;5110917;27;20035;-71
2022/06/27 04:44:36;;;;;;;4.85;4.45;;;16.20;99.90;;;;;;5094307;27;20047;-71
2022/06/27 04:47:07;;;;;;;5.85;5.15;;;16.20;99.90;;;;;;5106114;28;20036;-72
2022/06/27 04:49:33;;;;;;;5.20;4.80;;;16.20;99.90;;;;;;5101078;27;20050;-71
2022/06/27 04:51:58;;;;;;;4.80;4.40;;;16.10;99.90;;;;;;5111201;27;20492;-71
2022/06/27 04:54:25;;;;;;;4.95;4.55;;;16.20;99.90;;;;;;5108670;22;20100;-71
2022/06/27 04:56:52;;;;;;;5.22;4.43;;;16.20;99.90;;;;;;5105050;28;20055;-71
2022/06/27 04:59:20;;;;;;;5.95;4.22;;;16.20;99.90;;;;;;5093618;28;20052;-72
2022/06/27 05:01:46;;;;;;;4.35;3.95;;;16.30;99.90;;;;;;5099731;27;20092;-71
2022/06/27 05:04:12;;;;;;;6.50;4.80;;;16.30;99.90;;;;;;5081642;28;20436;-71
2022/06/27 05:06:37;;;;;;;4.47;4.07;;;16.30;99.90;;;;;;5094630;28;20031;-71
2022/06/27 05:09:03;;;;;;;3.75;3.15;;;16.30;99.90;;;;;;5097603;28;20090;-71
2022/06/27 05:11:28;;;;;;;4.20;3.90;;;16.30;99.90;;;;;;5088607;28;20042;-71
2022/06/27 05:13:54;;;;;;;3.80;3.50;;;16.30;99.90;;;;;;5109931;27;20396;-71
2022/06/27 05:16:20;;;;;;;3.88;3.58;;;16.30;99.90;;;;;;5110444;28;20126;-71
2022/06/27 05:18:46;;;;;;;6.43;3.60;;;16.30;99.90;;;;;;5106688;28;20023;-73
2022/06/27 05:21:11;;;;;;;4.10;3.72;;;16.30;99.90;;;;;;5077376;28;20469;-72
2022/06/27 05:23:38;;;;;;;4.65;3.80;;;16.40;99.90;;;;;;5102438;28;20668;-72
2022/06/27 05:26:04;;;;;;;4.13;3.72;;;16.40;99.90;;;;;;5099186;28;20097;-69
2022/06/27 05:28:30;;;;;;;4.05;3.75;;;16.50;99.90;;;;;;5096549;28;20493;-70
2022/06/27 05:30:56;;;;;;;4.65;3.83;;;16.50;99.90;;;;;;5095944;28;20035;-70
2022/06/27 05:33:22;;;;;;;3.90;3.60;;;16.50;99.90;;;;;;5075802;28;20044;-70
2022/06/27 05:35:49;;;;;;;4.75;3.80;;;16.60;99.90;;;;;;5097827;28;20040;-71
2022/06/27 05:38:15;;;;;;;3.70;3.40;;;16.70;99.90;;;;;;5089391;28;20505;-70
2022/06/27 05:40:41;;;;;;;4.10;3.78;;;16.80;99.90;;;;;;5106777;28;20040;-70
2022/06/27 05:43:07;;;;;;;4.13;3.78;;;16.90;99.90;;;;;;5089849;28;20055;-70
2022/06/27 05:45:33;;;;;;;3.72;3.42;;;17.00;99.90;;;;;;5107636;28;20081;-70
2022/06/27 05:48:03;;;;;;;3.72;3.42;;;17.00;99.90;;;;;;5107175;28;20158;-70
2022/06/27 05:50:29;;;;;;;4.32;3.92;;;17.10;99.90;;;;;;5085734;28;20073;-71
2022/06/27 05:52:59;;;;;;;3.63;3.33;;;17.20;99.90;;;;;;5101128;28;20043;-71
2022/06/27 05:55:29;;;;;;;3.72;3.42;;;17.40;99.90;;;;;;5092486;28;20048;-71
2022/06/27 05:57:58;;;;;;;3.58;3.28;;;17.60;99.90;;;;;;5106407;28;20075;-71
2022/06/27 06:00:24;;;;;;;3.90;3.60;;;17.70;99.90;;;;;;5090403;28;20078;-72
2022/06/27 06:02:50;;;;;;;3.72;3.42;;;17.90;99.90;;;;;;5091653;28;20074;-71
2022/06/27 06:05:17;;;;;;;3.45;3.13;;;18.00;99.90;;;;;;5088903;28;20032;-72
2022/06/27 06:07:43;;;;;;;3.33;2.85;;;18.10;99.90;;;;;;5091556;28;20024;-72
2022/06/27 06:10:09;;;;;;;5.18;2.75;;;18.20;99.90;;;;;;5074470;28;20748;-72
2022/06/27 06:12:35;;;;;;;2.65;2.42;;;18.30;99.90;;;;;;5095505;28;20084;-73
2022/06/27 06:15:04;;;;;;;2.80;2.60;;;18.40;99.90;;;;;;5094805;28;20111;-73
2022/06/27 06:17:34;;;;;;;2.63;2.42;;;18.40;99.90;;;;;;5098726;28;20504;-72
2022/06/27 06:20:01;;;;;;;3.03;2.83;;;18.50;99.90;;;;;;5093940;28;20031;-72
2022/06/27 06:22:28;;;;;;;2.88;2.67;;;18.50;99.90;;;;;;5088386;28;20076;-72
2022/06/27 06:24:54;;;;;;;3.35;3.15;;;18.40;99.90;;;;;;5113623;28;20393;-72
2022/06/27 06:27:22;;;;;;;3.22;2.85;;;18.40;99.90;;;;;;5113265;28;20051;-72
2022/06/27 06:29:48;;;;;;;3.13;2.78;;;18.40;99.90;;;;;;5103411;27;20047;-72
2022/06/27 06:32:14;;;;;;;3.10;2.90;;;18.40;99.90;;;;;;5101334;28;20039;-71
2022/06/27 06:34:40;;;;;;;3.05;2.75;;;18.40;99.90;;;;;;5080706;28;20402;-72
2022/06/27 06:37:07;;;;;;;3.10;2.80;;;18.30;99.90;;;;;;5113991;27;20032;-73
2022/06/27 06:39:33;;;;;;;3.17;2.88;;;18.30;99.90;;;;;;5092123;28;20463;-73
2022/06/27 06:41:59;;;;;;;8.73;3.40;;;18.30;99.90;;;;;;5111591;28;20126;-72
2022/06/27 06:44:25;;;;;;;3.65;3.35;;;18.30;99.90;;;;;;5101073;28;20044;-72
2022/06/27 06:46:55;;;;;;;3.45;3.20;;;18.20;99.90;;;;;;5091870;28;20079;-72
2022/06/27 06:49:21;;;;;;;3.40;3.10;;;18.20;99.90;;;;;;5091922;28;20225;-72
2022/06/27 06:51:47;;;;;;;3.17;2.80;;;18.20;99.90;;;;;;5107946;28;20589;-73
2022/06/27 06:54:17;;;;;;;3.28;2.97;;;18.10;99.90;;;;;;5112768;28;20477;-71
2022/06/27 06:56:45;;;;;;;3.83;3.53;;;18.10;99.90;;;;;;5112852;28;20047;-72
2022/06/27 06:59:11;;;;;;;3.58;3.28;;;18.10;99.90;;;;;;5095862;28;20361;-71
2022/06/27 07:01:36;;;;;;;3.63;3.33;;;18.10;99.90;;;;;;5112900;28;20112;-73
2022/06/27 07:04:03;;;;;;;3.80;3.40;;;18.10;99.90;;;;;;5113052;28;20039;-71
2022/06/27 07:06:29;;;;;;;3.28;3.08;;;18.20;99.90;;;;;;5112711;28;20040;-72
2022/06/27 07:08:57;;;;;;;3.40;3.10;;;18.30;99.90;;;;;;5111604;28;20044;-72
2022/06/27 07:11:31;;;;;;;2.90;2.70;;;18.30;99.90;;;;;;5095404;28;20039;-72
2022/06/27 07:13:58;;;;;;;3.13;2.92;;;18.40;99.90;;;;;;5110829;28;20043;-72
2022/06/27 07:16:25;;;;;;;3.35;3.08;;;18.40;99.90;;;;;;5111879;28;20035;-71
2022/06/27 07:18:54;;;;;;;4.70;2.80;;;18.40;99.90;;;;;;5112626;28;20035;-72
2022/06/27 07:21:21;;;;;;;5.88;3.00;;;18.30;99.90;;;;;;5112728;28;20130;-72
2022/06/27 07:23:48;;;;;;;2.90;2.70;;;18.30;99.90;;;;;;5111236;27;20040;-72
2022/06/27 07:26:19;;;;;;;2.80;2.53;;;18.30;99.90;;;;;;5112061;28;20084;-72
2022/06/27 07:28:46;;;;;;;3.07;2.87;;;18.20;99.90;;;;;;5103935;28;20055;-72
2022/06/27 07:31:12;;;;;;;2.85;2.63;;;18.20;99.90;;;;;;5094793;28;20485;-73
2022/06/27 07:33:39;;;;;;;4.07;2.67;;;18.20;99.90;;;;;;5102010;28;20084;-73
2022/06/27 07:36:06;;;;;;;3.17;2.65;;;18.20;99.90;;;;;;5110912;28;20073;-73
2022/06/27 07:38:38;;;;;;;2.83;2.63;;;18.20;99.90;;;;;;5091978;28;20497;-72
2022/06/27 07:41:07;;;;;;;;;;;18.10;99.90;;;;;;5106886;28;20047;-72
2022/06/27 07:43:34;;;;;;;3.55;2.80;;;17.90;99.90;;;;;;5097455;28;19920;-71
2022/06/27 07:46:01;;;;;;;4.70;3.35;;;17.80;99.90;;;;;;5104755;28;20067;-72
2022/06/27 07:48:28;;;;;;;3.38;3.08;;;17.90;99.90;;;;;;5087809;28;20044;-73
2022/06/27 07:50:55;;;;;;;3.53;3.17;;;18.00;99.90;;;;;;5102749;28;20080;-72
2022/06/27 07:53:22;;;;;;;3.97;3.28;;;18.10;99.90;;;;;;5110941;28;20137;-71
2022/06/27 07:55:50;;;;;;;3.33;3.03;;;18.10;99.90;;;;;;5107147;28;20044;-71
2022/06/27 07:58:18;;;;;;;4.40;3.40;;;18.10;99.90;;;;;;5098961;28;20137;-71
2022/06/27 08:00:45;;;;;;;4.13;3.60;;;18.20;99.90;;;;;;5105441;28;20044;-71
2022/06/27 08:05:57;;;;;;;3.58;3.28;;;18.20;99.90;;;;;;5111613;28;20047;-71
2022/06/27 08:08:23;;;;;;;3.33;3.03;;;18.10;99.90;;;;;;5111173;28;20039;-71
2022/06/27 08:10:53;;;;;;;3.85;3.45;;;18.00;99.90;;;;;;5094425;28;20032;-71
2022/06/27 08:13:19;;;;;;;3.70;3.40;;;18.00;99.90;;;;;;5111531;28;20404;-72
2022/06/27 08:15:47;;;;;;;3.60;3.30;;;18.00;99.90;;;;;;5107743;27;20043;-72
2022/06/27 08:18:16;;;;;;;3.85;3.47;;;17.90;99.90;;;;;;5090429;28;20059;-72
2022/06/27 08:20:42;;;;;;;3.60;3.30;;;18.00;99.90;;;;;;5105096;27;20039;-71
2022/06/27 08:23:09;;;;;;;3.58;3.28;;;18.10;99.90;;;;;;5116248;27;20039;-70
2022/06/27 08:25:35;;;;;;;4.38;3.40;;;18.10;99.90;;;;;;5113073;27;20040;-70
2022/06/27 08:28:01;;;;;;;3.63;3.22;;;18.10;99.90;;;;;;5093426;28;20148;-72
2022/06/27 08:30:27;;;;;;;3.92;3.47;;;18.20;99.90;;;;;;5091765;28;20426;-72
2022/06/27 08:32:58;;;;;;;3.50;3.20;;;18.20;99.90;;;;;;5089905;28;20632;-71
2022/06/27 08:35:24;;;;;;;3.38;2.92;;;18.40;99.90;;;;;;5090325;28;20123;-71
2022/06/27 08:37:54;;;;;;;5.45;2.97;;;18.50;99.90;;;;;;5096342;28;20135;-71
2022/06/27 08:40:20;;;;;;;6.97;3.40;;;18.40;99.90;;;;;;5110088;28;20337;-71
2022/06/27 08:42:47;;;;;;;3.90;3.50;;;18.40;99.90;;;;;;5112043;28;20070;-71
2022/06/27 08:45:15;;;;;;;3.47;3.28;;;18.50;99.90;;;;;;5110752;28;20043;-71
2022/06/27 08:47:42;;;;;;;5.45;3.92;;;18.60;99.90;;;;;;5110855;28;20058;-71
2022/06/27 08:50:11;;;;;;;4.20;3.83;;;18.70;99.90;;;;;;5110780;28;20555;-71
2022/06/27 08:52:45;;;;;;;4.53;4.13;;;18.90;99.90;;;;;;5110786;28;20055;-71
2022/06/27 08:55:12;;;;;;;4.78;4.47;;;18.90;99.90;;;;;;5109193;28;20051;-71
2022/06/27 08:57:41;;;;;;;4.70;4.35;;;18.90;99.90;;;;;;5110789;28;20070;-71
2022/06/27 09:00:09;;;;;;;4.82;4.43;;;19.00;99.90;;;;;;5110639;28;20257;-71
2022/06/27 09:02:42;;;;;;;4.18;3.90;;;19.00;99.90;;;;;;5110830;28;20059;-71
2022/06/27 09:05:15;;;;;;;4.68;4.38;;;19.00;99.90;;;;;;5110520;28;20429;-73
2022/06/27 09:08:02;;;;;;;4.47;4.07;;;19.10;99.90;;;;;;5110201;28;20043;-71
2022/06/27 09:10:32;;;;;;;4.18;3.88;;;19.20;99.90;;;;;;5109310;28;20051;-71
2022/06/27 09:13:13;;;;;;;4.35;4.00;;;19.20;99.90;;;;;;5109991;28;20051;-72
2022/06/27 09:15:57;;;;;;;4.72;4.10;;;19.40;99.90;;;;;;5108125;28;20048;-72
2022/06/27 09:18:22;;;;;;;4.28;3.97;;;19.50;99.90;;;;;;5108832;28;20408;-73
2022/06/27 09:21:00;;;;;;;4.25;3.95;;;19.60;99.90;;;;;;5093124;28;20135;-70
2022/06/27 09:23:31;;;;;;;3.90;3.60;;;19.70;99.90;;;;;;5095664;28;20427;-71
2022/06/27 09:26:06;;;;;;;15.32;4.50;;;19.80;99.90;;;;;;5092180;28;20040;-72
2022/06/27 09:28:41;;;;;;;4.65;3.70;;;19.80;99.90;;;;;;5091052;28;20097;-71
2022/06/27 09:31:13;;;;;;;5.47;4.07;;;19.80;99.90;;;;;;5089682;28;20059;-71
2022/06/27 09:33:42;;;;;;;3.67;3.38;;;19.70;99.90;;;;;;5108050;28;20044;-71
2022/06/27 09:36:13;;;;;;;3.40;3.10;;;19.70;99.90;;;;;;5110077;28;20046;-71
2022/06/27 09:38:43;;;;;;;3.60;3.30;;;19.70;99.90;;;;;;5093099;28;20036;-71
2022/06/27 09:41:12;;;;;;;3.67;3.37;;;19.60;99.90;;;;;;5092324;28;20051;-71
2022/06/27 09:43:44;;;;;;;3.40;3.10;;;19.50;99.90;;;;;;5110178;28;20366;-71
2022/06/27 09:46:12;;;;;;;4.93;3.15;;;19.50;99.90;;;;;;5093253;28;20051;-71
2022/06/27 09:48:46;;;;;;;2.95;2.75;;;19.50;99.90;;;;;;5109812;28;20062;-71
2022/06/27 09:51:15;;;;;;;3.53;3.22;;;19.50;99.90;;;;;;5093026;28;20067;-71
2022/06/27 09:53:47;;;;;;;3.47;2.95;;;19.50;99.90;;;;;;5109689;28;20151;-71
2022/06/27 09:56:15;;;;;;;3.20;2.83;;;19.50;99.90;;;;;;5109991;28;20114;-71
2022/06/27 09:58:41;;;;;;;3.45;3.15;;;19.40;99.90;;;;;;5110578;28;20043;-71
2022/06/27 10:01:08;;;;;;;4.50;3.03;;;19.40;99.90;;;;;;5113176;28;20078;-71
2022/06/27 10:03:36;;;;;;;3.15;2.90;;;19.50;99.90;;;;;;5113257;28;20047;-71
2022/06/27 10:06:03;;;;;;;2.80;2.60;;;19.60;99.90;;;;;;5105750;28;20047;-72
2022/06/27 10:08:32;;;;;;;3.78;2.65;;;19.60;99.90;;;;;;5113316;28;20484;-72
2022/06/27 10:11:06;;;;;;;2.75;2.65;;;19.60;99.90;;;;;;5113028;28;20081;-72
2022/06/27 10:13:33;;;;;;;2.90;2.60;;;19.60;99.90;;;;;;5091655;28;20032;-72
2022/06/27 10:16:04;;;;;;;3.05;2.85;;;19.50;99.90;;;;;;5097644;28;20035;-71
2022/06/27 10:18:50;;;;;;;2.60;2.40;;;19.70;99.90;;;;;;5110293;28;20043;-71
2022/06/27 10:21:26;;;;;;;3.67;2.50;;;19.90;99.90;;;;;;5113619;28;20043;-71
2022/06/27 10:24:26;;;;;;;2.88;2.42;;;20.10;99.90;;;;;;5113339;28;20044;-71
2022/06/27 10:26:57;;;;;;;2.90;2.45;;;20.20;99.90;;;;;;5096585;28;20047;-72
2022/06/27 10:29:45;;;;;;;2.67;2.47;;;20.40;99.90;;;;;;5102936;28;20036;-71
2022/06/27 10:32:35;;;;;;;3.05;2.40;;;20.50;99.90;;;;;;5076044;28;20170;-71
2022/06/27 10:35:04;;;;;;;3.72;2.35;;;20.50;99.90;;;;;;5093123;28;20105;-71
2022/06/27 10:37:34;;;;;;;2.70;2.50;;;20.60;99.90;;;;;;5092910;28;20119;-72
2022/06/27 10:40:18;;;;;;;2.78;2.40;;;20.70;99.90;;;;;;5090312;28;20044;-71
2022/06/27 10:42:52;;;;;;;2.33;2.13;;;20.80;99.90;;;;;;5113681;28;20092;-71
2022/06/27 10:45:21;;;;;;;2.80;2.60;;;20.90;99.90;;;;;;5092779;28;20036;-72
2022/06/27 10:47:52;;;;;;;3.95;2.58;;;21.00;99.90;;;;;;5094655;28;20043;-74
2022/06/27 10:50:20;;;;;;;2.77;2.10;;;21.10;99.90;;;;;;5108764;28;20626;-72
2022/06/27 10:52:46;;;;;;;2.78;2.58;;;21.10;99.90;;;;;;5111695;27;20081;-72
2022/06/27 10:55:21;;;;;;;2.70;2.50;;;21.10;99.90;;;;;;5107036;28;20070;-72
2022/06/27 10:57:48;;;;;;;2.80;2.60;;;21.30;99.90;;;;;;5096844;28;20048;-72
2022/06/27 11:00:40;;;;;;;2.60;2.40;;;21.40;99.90;;;;;;5084431;28;20054;-72
2022/06/27 11:03:06;;;;;;;;;;;21.40;99.90;;;;;;5110709;28;20044;-72
2022/06/27 11:05:52;;;;;;;2.55;2.35;;;21.60;99.90;;;;;;5099994;28;19920;-72
2022/06/27 11:08:19;;;;;;;2.60;2.20;;;21.70;99.90;;;;;;5079553;28;20453;-71
2022/06/27 11:10:46;;;;;;;2.70;2.10;;;21.80;99.90;;;;;;5106920;28;20095;-71
2022/06/27 11:13:43;;;;;;;2.42;2.17;;;21.80;99.90;;;;;;5106614;28;20036;-72
2022/06/27 11:16:17;;;;;;;2.17;2.08;;;22.00;99.90;;;;;;5112387;28;20465;-71
2022/06/27 11:18:52;;;;;;;2.60;2.40;;;22.00;99.90;;;;;;5081587;28;20040;-72
2022/06/27 11:21:23;;;;;;;2.95;2.33;;;21.90;99.90;;;;;;5103292;28;20043;-71
2022/06/27 11:24:06;;;;;;;2.85;2.47;;;21.80;99.90;;;;;;5101809;28;20051;-72
2022/06/27 11:26:35;;;;;;;3.42;2.47;;;21.90;99.90;;;;;;5098909;28;20063;-71
2022/06/27 11:32:05;;;;;;;2.50;2.30;;;22.10;99.90;;;;;;5098808;28;20047;-72
2022/06/27 11:34:36;;;;;;;3.28;2.50;;;22.10;99.90;;;;;;5092417;28;20374;-72
2022/06/27 11:37:14;;;;;;;1.88;1.77;;;22.00;99.90;;;;;;5074440;28;20039;-72
2022/06/27 11:39:40;;;;;;;2.13;1.95;;;21.90;99.90;;;;;;5086843;28;20485;-72
2022/06/27 11:42:10;;;;;;;2.95;2.25;;;21.80;99.90;;;;;;5091881;28;20089;-72
2022/06/27 11:44:37;;;;;;;2.42;2.22;;;21.70;99.90;;;;;;5105047;27;20055;-72
2022/06/27 11:47:04;;;;;;;3.28;2.10;;;21.70;99.90;;;;;;5110992;28;20043;-71
2022/06/27 11:49:36;;;;;;;4.72;2.30;;;21.60;99.90;;;;;;5098873;28;20097;-71
2022/06/27 11:52:05;;;;;;;3.97;2.63;;;21.60;99.90;;;;;;5109126;28;20055;-71
2022/06/27 11:54:43;;;;;;;4.30;2.70;;;21.70;99.90;;;;;;5108731;28;20059;-71
2022/06/27 11:57:22;;;;;;;2.33;2.10;;;21.60;99.90;;;;;;5106402;28;20050;-71
2022/06/27 11:59:49;;;;;;;1.90;1.80;;;21.60;99.90;;;;;;5111797;28;20069;-74
2022/06/27 12:02:43;;;;;;;2.42;2.13;;;21.50;99.90;;;;;;5092084;28;20161;-73
2022/06/27 12:05:22;;;;;;;2.35;2.00;;;21.50;99.90;;;;;;5110173;28;20040;-72
2022/06/27 12:08:06;;;;;;;2.80;2.40;;;21.20;99.90;;;;;;5113139;28;20044;-73
2022/06/27 12:13:38;;;;;;;3.00;2.80;;;21.10;99.90;;;;;;5092485;28;20075;-72
2022/06/27 12:16:07;;;;;;;2.63;2.42;;;21.00;99.90;;;;;;5094654;28;20041;-72
2022/06/27 12:18:40;;;;;;;3.67;2.88;;;21.10;99.90;;;;;;5110464;28;20073;-72
2022/06/27 12:21:06;;;;;;;2.97;2.70;;;21.10;99.90;;;;;;5108370;28;20042;-72
2022/06/27 12:23:31;;;;;;;3.53;2.60;;;21.20;99.90;;;;;;5110793;28;20047;-71
2022/06/27 12:25:57;;;;;;;2.85;2.50;;;21.20;99.90;;;;;;5111921;28;20039;-71
2022/06/27 12:28:23;;;;;;;2.90;2.60;;;21.20;99.90;;;;;;5112094;28;20097;-71
2022/06/27 12:30:49;;;;;;;3.22;2.88;;;21.10;99.90;;;;;;5111977;28;20089;-72
2022/06/27 12:33:14;;;;;;;3.30;2.65;;;21.20;99.90;;;;;;5106424;28;20477;-72
2022/06/27 12:35:40;;;;;;;3.40;2.97;;;21.30;99.90;;;;;;5112632;28;20457;-71
2022/06/27 12:38:07;;;;;;;4.25;3.40;;;21.40;99.90;;;;;;5112092;28;20139;-72
2022/06/27 12:40:35;;;;;;;3.50;3.20;;;21.40;99.90;;;;;;5105400;28;20427;-72
2022/06/27 12:43:01;;;;;;;3.95;3.10;;;21.30;99.90;;;;;;5101222;27;20048;-72
2022/06/27 12:45:26;;;;;;;3.88;3.40;;;21.40;99.90;;;;;;5107306;28;20034;-72
2022/06/27 12:47:52;;;;;;;3.53;3.22;;;21.50;99.90;;;;;;5102672;28;20039;-72
2022/06/27 12:50:17;;;;;;;4.45;3.03;;;21.50;99.90;;;;;;5107993;28;20133;-72
2022/06/27 12:52:43;;;;;;;3.72;3.35;;;21.50;99.90;;;;;;5103515;28;20047;-72
2022/06/27 12:55:10;;;;;;;3.30;3.00;;;21.50;99.90;;;;;;5081991;28;20052;-72
2022/06/27 12:57:35;;;;;;;3.72;3.42;;;21.40;99.90;;;;;;5110414;28;20107;-71